Latest Coastal Weather Observations for Williamtown

IDN60701

Issued at 10:35 am EST Wednesday 1 October 2014 (issued every 10 minutes, with the page automatically refreshed every 10 minutes)

About coastal observations | Map of coastal stations | Coastal observations for NSW | Marine services | Other Formats
Station Details ID: 061078 Name: WILLIAMTOWN RAAF Lat: -32.79 Lon: 151.84 Height: 9.0 m
Data from the previous 72 hours. | See also: Recent months at Williamtown
Date/Time
EST
Temp

°C
Wind Pressure Rain
since 9am
mm
Weather Cloud Vis
km
Sea
Height
m
Swell
Dir
 
Speed
knots
Gust
knots
hPa Trend Height
m
Period
s
Dir
01/10:30am 20.7 S 21 26 1017.7 - 0.0 - - 10 - - - -
01/10:00am 20.0 S 21 28 1017.3 - 0.0 - - 10 - - - -
01/09:52am 20.1 S 19 23 1017.4 - 0.0 - - 10 - - - -
01/09:30am 19.9 SSW 20 27 1016.9 - 0.0 - - 10 - - - -
01/09:00am 18.5 SSW 23 33 1016.6 R 0.0 Haze Mostly clear 20 - - - -
01/08:40am 18.4 SSW 19 29 1016.4 - 0.0 - - 10 - - - -
01/08:30am 18.3 SSW 19 28 1016.3 - 0.0 - - 10 - - - -
01/08:00am 18.2 S 20 30 1015.7 - 0.0 - - 10 - - - -
01/07:37am 18.5 SSW 17 27 1015.2 - 0.0 - - 10 - - - -
01/07:30am 18.8 SSW 15 23 1014.9 - 0.0 - - 10 - - - -
01/07:00am 19.3 SSW 13 19 1014.5 - 0.0 - - 10 - - - -
01/06:30am 18.6 SSW 15 21 1013.9 - 0.0 - - 10 - - - -
01/06:00am 18.3 S 15 22 1013.6 R 0.0 Haze Clear 20 - - - -
01/05:30am 18.1 S 14 22 1012.7 - 0.0 - - 10 - - - -
01/05:00am 17.1 S 10 24 1012.1 - 0.0 - - 10 - - - -
01/04:30am 12.9 CALM 0 0 1010.4 - 0.0 - - 10 - - - -
01/04:00am 12.9 NW 5 6 1009.8 - 0.0 - - 10 - - - -
01/03:30am 14.6 WSW 2 6 1009.5 - 0.0 - - 10 - - - -
01/03:00am 13.3 CALM 0 0 1009.0 - 0.0 - - 10 - - - -
01/02:30am 13.1 CALM 0 0 1008.5 - 0.0 - - 10 - - - -
01/02:00am 13.4 NW 4 4 1008.2 - 0.0 - - 10 - - - -
01/01:30am 15.5 NW 5 5 1008.4 - 0.0 - - 10 - - - -
01/01:00am 14.8 NNW 6 7 1008.5 - 0.0 - - 10 - - - -
01/12:30am 14.2 NNW 4 5 1008.6 - 0.0 - - 10 - - - -
01/12:00am 14.9 WNW 2 3 1009.0 - 0.0 - - 10 - - - -
 
Date/Time
EST
Temp

°C
Wind Pressure Rain
since 9am
mm
Weather Cloud Vis
km
Sea
Height
m
Swell
Dir
 
Speed
knots
Gust
knots
hPa Trend Height
m
Period
s
Dir
30/11:30pm 15.6 W 4 7 1008.8 - 0.0 - - 10 - - - -
30/11:00pm 15.6 NNE 5 6 1008.6 - 0.0 - - 10 - - - -
30/10:30pm 17.4 N 4 5 1008.9 - 0.0 - - 10 - - - -
30/10:00pm 17.5 N 5 6 1009.1 - 0.0 - - 10 - - - -
30/09:30pm 19.9 N 5 6 1009.3 - 0.0 - - 10 - - - -
30/09:00pm 22.2 N 6 7 1009.7 - 0.0 - - 10 - - - -
30/08:30pm 22.6 N 6 7 1009.9 - 0.0 - - 10 - - - -
30/08:00pm 22.8 N 5 7 1009.9 - 0.0 - - 10 - - - -
30/07:30pm 25.4 N 6 9 1009.9 - 0.0 - - 10 - - - -
30/07:00pm 26.0 N 7 9 1009.8 - 0.0 - - 10 - - - -
30/06:30pm 26.9 N 7 10 1009.9 - 0.0 - - 10 - - - -
30/06:00pm 28.4 N 8 11 1009.9 - 0.0 - - 10 - - - -
30/05:30pm 29.4 NNW 9 14 1009.9 - 0.0 - - 10 - - - -
30/05:00pm 30.1 NNW 10 14 1009.9 - 0.0 - - 10 - - - -
30/04:30pm 29.9 NNW 10 18 1009.9 - 0.0 - - 10 - - - -
30/04:00pm 29.5 N 8 12 1010.3 - 0.0 - - 10 - - - -
30/03:30pm 30.5 NNW 8 11 1010.5 - 0.0 - - 10 - - - -
30/03:00pm 29.5 N 7 10 1010.9 F 0.0 Fine Mostly cloudy 30 - - - -
30/02:30pm 30.0 NNW 8 10 1011.1 - 0.0 - - 10 - - - -
30/02:00pm 28.9 N 6 9 1011.4 - 0.0 - - 10 - - - -
30/01:30pm 28.8 N 5 7 1011.8 - 0.0 - - 10 - - - -
30/01:00pm 28.6 NNW 6 7 1012.0 - 0.0 - - 10 - - - -
30/12:30pm 28.9 NW 5 7 1012.4 - 0.0 - - 10 - - - -
30/12:00pm 28.7 NNW 6 7 1012.9 F 0.0 Haze Partly cloudy 30 - - - -
30/11:30am 29.8 NW 5 10 1013.4 - 0.0 - - 10 - - - -
30/11:00am 27.3 N 7 10 1013.6 - 0.0 - - 10 - - - -
30/10:30am 27.4 NW 8 10 1014.3 - 0.0 - - 10 - - - -
30/10:00am 27.1 NNW 7 9 1014.2 - 0.0 - - 10 - - - -
30/09:30am 26.2 NNW 6 9 1014.6 - 0.0 - - 10 - - - -
30/09:00am 24.3 NW 5 7 1015.3 F 0.0 Fine Partly cloudy 30 - - - -
30/08:30am 20.4 WNW 3 7 1015.2 - 0.0 - Partly cloudy 10 - - - -
30/08:00am 18.9 NNW 5 7 1015.1 - 0.0 - Partly cloudy 10 - - - -
30/07:30am 17.9 WNW 6 7 1015.3 - 0.0 - - 10 - - - -
30/07:00am 17.7 WNW 5 8 1015.2 - 0.0 - Partly cloudy 10 - - - -
30/06:30am 17.4 WNW 1 5 1014.7 - 0.0 - Partly cloudy 10 - - - -
30/06:00am 15.8 NNW 5 7 1014.8 F 0.0 Fine Mostly cloudy 20 - - - -
30/05:30am 14.3 N 5 6 1014.5 - 0.0 - - 10 - - - -
30/05:00am 15.6 N 7 8 1014.3 - 0.0 - - 10 - - - -
30/04:30am 13.3 N 6 7 1014.4 - 0.0 - - 10 - - - -
30/04:00am 14.8 N 5 7 1014.1 - 0.0 - - 10 - - - -
30/03:30am 12.6 N 4 6 1014.2 - 0.0 - - 10 - - - -
30/03:00am 12.5 N 4 5 1014.3 - 0.0 - - 10 - - - -
30/02:30am 13.4 NNW 4 5 1014.4 - 0.0 - - 10 - - - -
30/02:00am 14.8 NNW 6 8 1014.4 - 0.0 - - 10 - - - -
30/01:30am 13.2 NE 1 7 1014.8 - 0.0 - - 10 - - - -
30/01:00am 13.7 CALM 0 0 1015.0 - 0.0 - - 10 - - - -
30/12:30am 14.9 CALM 0 5 1015.2 - 0.0 - - 10 - - - -
30/12:00am 14.1 CALM 0 0 1015.2 - 0.0 - - 10 - - - -
 
Date/Time
EST
Temp

°C
Wind Pressure Rain
since 9am
mm
Weather Cloud Vis
km
Sea
Height
m
Swell
Dir
 
Speed
knots
Gust
knots
hPa Trend Height
m
Period
s
Dir
29/11:30pm 14.5 CALM 0 0 1015.4 - 0.0 - - 10 - - - -
29/11:00pm 15.3 CALM 0 0 1015.6 - 0.0 - - 10 - - - -
29/10:30pm 15.8 CALM 0 0 1015.8 - 0.0 - - 10 - - - -
29/10:00pm 19.6 N 7 9 1015.6 - 0.0 - - 10 - - - -
29/09:30pm 17.1 N 5 7 1015.6 - 0.0 - - 10 - - - -
29/09:00pm 17.3 CALM 0 0 1015.6 - 0.0 - - 10 - - - -
29/08:30pm 18.7 CALM 0 0 1015.4 - 0.0 - - 10 - - - -
29/08:00pm 18.6 CALM 0 0 1015.3 - 0.0 - - 10 - - - -
29/07:30pm 19.4 NNE 6 7 1014.9 - 0.0 - - 10 - - - -
29/07:00pm 20.8 ENE 5 6 1014.5 - 0.0 - - 10 - - - -
29/06:30pm 21.5 N 5 6 1014.1 - 0.0 - - 10 - - - -
29/06:00pm 24.0 NNW 6 6 1013.9 - 0.0 - - 10 - - - -
29/05:30pm 27.1 N 5 6 1013.5 - 0.0 - - 10 - - - -
29/05:00pm 28.3 N 7 9 1013.0 - 0.0 - - 10 - - - -
29/04:30pm 29.3 NNW 9 12 1012.7 - 0.0 - - 10 - - - -
29/04:00pm 29.7 NW 10 13 1012.7 - 0.0 - - 10 - - - -
29/03:30pm 30.2 NNW 12 18 1012.8 - 0.0 - - 10 - - - -
29/03:00pm 30.2 NNW 11 16 1013.0 R 0.0 Fine Mostly clear 40 - - - -
29/02:30pm 30.7 NNW 11 17 1013.0 - 0.0 - - 10 - - - -
29/02:00pm 30.3 WNW 13 15 1013.2 - 0.0 - - 10 - - - -
29/01:30pm 30.0 NNW 14 20 1013.7 - 0.0 - - 10 - - - -
29/01:00pm 29.6 WNW 14 18 1014.1 - 0.0 - - 10 - - - -
29/12:30pm 29.5 WNW 14 18 1014.4 - 0.0 - - 10 - - - -
29/12:00pm 29.3 W 14 20 1014.7 F 0.0 Fine Mostly clear 40 - - - -
29/11:30am 29.0 WNW 17 21 1015.1 - 0.0 - - 10 - - - -
29/11:00am 27.3 WNW 15 20 1015.4 - 0.0 - - 10 - - - -
29/10:30am 25.7 WNW 14 18 1015.8 - 0.0 - - 10 - - - -
29/10:00am 24.0 WNW 11 15 1016.0 - 0.0 - - 10 - - - -
29/09:30am 22.5 NNW 7 10 1016.2 - 0.0 - - 10 - - - -
29/09:00am 21.1 NNW 7 9 1016.5 F 0.0 Fine Mostly clear 40 - - - -
29/08:30am 19.6 NNW 8 10 1016.5 - 0.0 - - 10 - - - -
29/08:00am 18.3 NNW 9 12 1016.5 - 0.0 - - 10 - - - -
29/07:30am 17.0 NW 9 12 1016.4 - 0.0 - - 10 - - - -
29/07:00am 15.4 NW 8 12 1016.6 - 0.0 - - 10 - - - -
29/06:30am 13.3 N 4 6 1016.4 - 0.0 - - 10 - - - -
29/06:00am 10.9 NNW 5 6 1016.4 F 0.0 Haze Clear 25 - - - -
29/05:30am 9.9 WNW 5 6 1016.1 - 0.0 - - 10 - - - -
29/05:00am 9.7 NNW 4 5 1015.8 - 0.0 - - 10 - - - -
29/04:30am 11.0 NW 4 4 1015.9 - 0.0 - - 10 - - - -
29/04:00am 12.0 N 7 8 1015.7 - 0.0 - - 10 - - - -
29/03:30am 10.7 CALM 0 0 1015.9 - 0.0 - - 10 - - - -
29/03:00am 12.6 NNW 5 8 1015.9 - 0.0 - - 10 - - - -
29/02:30am 12.9 N 7 8 1015.9 - 0.0 - - 10 - - - -
29/02:00am 12.5 NNE 7 8 1016.6 - 0.0 - - 10 - - - -
29/01:30am 12.6 NNW 5 6 1017.1 - 0.0 - - 10 - - - -
29/01:00am 13.2 NNE 4 6 1017.1 - 0.0 - - 10 - - - -
29/12:30am 14.0 NNE 6 9 1017.2 - 0.0 - - 10 - - - -
29/12:00am 14.3 NNE 6 9 1017.6 - 0.0 - - 10 - - - -
 
Date/Time
EST
Temp

°C
Wind Pressure Rain
since 9am
mm
Weather Cloud Vis
km
Sea
Height
m
Swell
Dir
 
Speed
knots
Gust
knots
hPa Trend Height
m
Period
s
Dir
28/11:30pm 14.3 NNE 6 7 1017.8 - 0.0 - - 10 - - - -
28/11:00pm 15.2 NNE 7 9 1018.0 - 0.0 - - 10 - - - -
28/10:30pm 15.6 NNE 7 11 1018.0 - 0.0 - - 10 - - - -
28/10:00pm 16.0 NE 7 11 1018.0 - 0.0 - - 10 - - - -
28/09:30pm 16.3 NNE 8 12 1017.9 - 0.0 - - 10 - - - -
28/09:00pm 16.6 NE 10 16 1018.2 - 0.0 - - 10 - - - -
28/08:30pm 16.8 NE 11 18 1018.1 - 0.0 - - 10 - - - -
28/08:00pm 16.9 NE 10 15 1018.0 - 0.0 - - 10 - - - -
28/07:30pm 17.2 NE 10 17 1017.9 - 0.0 - - 10 - - - -
28/07:00pm 17.4 NE 10 15 1017.6 - 0.0 - - 10 - - - -
28/06:30pm 18.0 NE 10 16 1017.5 - 0.0 - - 10 - - - -
28/06:00pm 18.2 ENE 10 15 1017.5 - 0.0 - - 10 - - - -
28/05:30pm 19.2 ENE 10 15 1017.2 - 0.0 - - 10 - - - -
28/05:00pm 20.1 ENE 10 15 1017.2 - 0.0 - - 10 - - - -
28/04:30pm 21.1 ENE 12 16 1017.3 - 0.0 - - 10 - - - -
28/04:00pm 22.2 ENE 11 17 1017.4 - 0.0 - - 10 - - - -
28/03:30pm 22.3 ENE 11 15 1017.4 - 0.0 - - 10 - - - -
28/03:00pm 23.0 ENE 10 15 1017.6 F 0.0 Fine Mostly clear 40 - - - -
28/02:30pm 23.8 ENE 8 11 1017.8 - 0.0 - - 10 - - - -
28/02:00pm 23.3 NE 8 13 1018.3 - 0.0 - - 10 - - - -
28/01:30pm 22.6 N 9 10 1018.8 - 0.0 - - 10 - - - -
28/01:00pm 23.1 ENE 5 8 1019.2 - 0.0 - Partly cloudy 10 - - - -
28/12:30pm 23.0 WNW 6 9 1019.9 - 0.0 - - 10 - - - -
28/12:00pm 22.6 N 7 10 1020.6 F 0.0 Fine Mostly clear 40 - - - -
28/11:30am 21.8 WNW 6 9 1021.0 - 0.0 - - 10 - - - -
28/11:00am 21.3 NNE 5 7 1021.6 - 0.0 - - 10 - - - -

Other Formats:

Comma delimited format used in spreadsheet applications
http://www.bom.gov.au/fwo/IDN60701/IDN60701.94776.axf

JavaScript Object Notation format (JSON) in row-major order
http://www.bom.gov.au/fwo/IDN60701/IDN60701.94776.json